Time;durP1;ratioP1;P1;durP2;ratioP2;P2;SDS_P1;SDS_P2;PMS_P1;PMS_P2;Temp;Humidity;BMP_temperature;BMP_pressure;BME280_temperature;BME280_humidity;BME280_pressure;Samples;Min_cycle;Max_cycle;Signal;HPM_P1;HPM_P2
2022/03/28 00:01:08;;;;;;;13.00;9.93;;;7.30;99.90;;;;;;6268093;22;20066;-56
2022/03/28 00:03:33;;;;;;;13.15;9.45;;;7.10;99.90;;;;;;6268651;22;20020;-56
2022/03/28 00:05:59;;;;;;;15.93;9.07;;;7.10;99.90;;;;;;6267876;22;20472;-56
2022/03/28 00:08:25;;;;;;;12.52;9.20;;;7.10;99.90;;;;;;6267237;22;20053;-56
2022/03/28 00:10:50;;;;;;;12.00;8.07;;;7.20;99.90;;;;;;6267703;22;20022;-56
2022/03/28 00:13:16;;;;;;;15.70;8.40;;;7.20;99.90;;;;;;6268095;22;20128;-56
2022/03/28 00:15:42;;;;;;;14.02;8.30;;;7.20;99.90;;;;;;6268437;22;20065;-57
2022/03/28 00:18:08;;;;;;;10.77;7.63;;;7.20;99.90;;;;;;6268072;22;20414;-56
2022/03/28 00:20:34;;;;;;;11.70;7.03;;;7.20;99.90;;;;;;6267456;22;20027;-57
2022/03/28 00:23:00;;;;;;;7.88;6.15;;;7.20;99.90;;;;;;6267161;22;20023;-56
2022/03/28 00:25:26;;;;;;;10.48;6.85;;;7.20;99.90;;;;;;6268019;22;20019;-56
2022/03/28 00:27:51;;;;;;;8.32;6.10;;;7.20;99.90;;;;;;6268155;22;20024;-57
2022/03/28 00:30:17;;;;;;;7.10;5.60;;;7.40;99.90;;;;;;6240340;22;20473;-60
2022/03/28 00:32:42;;;;;;;9.43;6.20;;;7.20;99.90;;;;;;6267376;22;20435;-57
2022/03/28 00:35:08;;;;;;;7.90;6.07;;;7.20;99.90;;;;;;6267880;22;20031;-59
2022/03/28 00:37:37;;;;;;;10.73;8.00;;;7.30;99.90;;;;;;6263485;22;20198;-59
2022/03/28 00:40:05;;;;;;;12.55;7.93;;;7.20;99.90;;;;;;6266968;22;20027;-57
2022/03/28 00:42:30;;;;;;;12.25;8.23;;;7.10;99.90;;;;;;6266948;22;20452;-56
2022/03/28 00:44:56;;;;;;;10.98;7.90;;;7.00;99.90;;;;;;6267014;22;20015;-56
2022/03/28 00:47:22;;;;;;;11.48;7.68;;;7.00;99.90;;;;;;6266022;22;20034;-56
2022/03/28 00:49:48;;;;;;;13.20;8.45;;;7.10;99.90;;;;;;6266908;22;20027;-55
2022/03/28 00:52:14;;;;;;;10.85;8.25;;;7.60;99.90;;;;;;6267052;22;20016;-56
2022/03/28 00:54:40;;;;;;;11.02;7.35;;;7.60;99.90;;;;;;6266714;22;20019;-55
2022/03/28 00:57:06;;;;;;;10.25;6.70;;;7.20;99.90;;;;;;6266890;22;20019;-56
2022/03/28 00:59:32;;;;;;;10.40;6.40;;;7.20;99.90;;;;;;6266899;22;20016;-56
2022/03/28 01:01:59;;;;;;;13.63;8.52;;;7.20;99.90;;;;;;6266719;22;20579;-56
2022/03/28 01:04:25;;;;;;;9.07;6.13;;;7.10;99.90;;;;;;6240139;22;20061;-56
2022/03/28 01:06:52;;;;;;;15.55;8.25;;;7.10;99.90;;;;;;6266659;22;20020;-56
2022/03/28 01:09:18;;;;;;;13.38;7.57;;;7.20;99.90;;;;;;6267491;22;20407;-56
2022/03/28 01:11:46;;;;;;;9.68;7.05;;;7.10;99.90;;;;;;6266901;22;20108;-56
2022/03/28 01:14:11;;;;;;;14.27;9.05;;;7.20;99.90;;;;;;6239541;22;20043;-56
2022/03/28 01:19:24;;;;;;;13.20;8.75;;;7.20;99.90;;;;;;6266621;22;20358;-56
2022/03/28 01:21:51;;;;;;;18.38;11.07;;;7.20;99.90;;;;;;6239579;22;20091;-56
2022/03/28 01:24:17;;;;;;;17.33;9.85;;;7.20;99.90;;;;;;6266406;22;20023;-56
2022/03/28 01:26:43;;;;;;;18.67;12.38;;;7.20;99.90;;;;;;6266986;22;20342;-56
2022/03/28 01:29:09;;;;;;;19.92;11.57;;;7.60;99.90;;;;;;6266442;22;20061;-56
2022/03/28 01:31:39;;;;;;;21.77;11.73;;;7.20;99.90;;;;;;6266690;22;20338;-56
2022/03/28 01:34:05;;;;;;;16.65;12.65;;;7.10;99.90;;;;;;6267068;22;20044;-56
2022/03/28 01:36:31;;;;;;;18.80;11.02;;;7.00;99.90;;;;;;6266432;22;20108;-56
2022/03/28 01:38:56;;;;;;;15.20;11.57;;;7.00;99.90;;;;;;6266608;22;20016;-56
2022/03/28 01:41:22;;;;;;;16.88;12.68;;;7.00;99.90;;;;;;6265763;22;20026;-56
2022/03/28 01:43:48;;;;;;;20.10;12.13;;;7.00;99.90;;;;;;6238907;22;20023;-56
2022/03/28 01:46:14;;;;;;;18.65;12.40;;;7.00;99.90;;;;;;6266158;22;20022;-56
2022/03/28 01:48:39;;;;;;;14.20;10.10;;;6.90;99.90;;;;;;6238886;22;20086;-58
2022/03/28 01:51:05;;;;;;;14.07;9.73;;;7.20;99.90;;;;;;6265799;22;20047;-56
2022/03/28 01:53:31;;;;;;;15.85;10.02;;;6.90;99.90;;;;;;6267257;22;20016;-57
2022/03/28 01:55:56;;;;;;;13.40;9.68;;;6.80;99.90;;;;;;6266848;22;20338;-57
2022/03/28 01:58:22;;;;;;;12.90;9.77;;;6.90;99.90;;;;;;6266015;22;20023;-56
2022/03/28 02:00:48;;;;;;;13.82;10.05;;;6.90;99.90;;;;;;6265329;22;20020;-56
2022/03/28 02:03:13;;;;;;;13.52;9.38;;;6.90;99.90;;;;;;6239329;22;20023;-56
2022/03/28 02:05:39;;;;;;;9.68;7.10;;;7.00;99.90;;;;;;6239146;22;20023;-56
2022/03/28 02:08:05;;;;;;;9.68;7.90;;;7.10;99.90;;;;;;6266192;22;20020;-57
2022/03/28 02:10:31;;;;;;;12.18;6.47;;;6.90;99.90;;;;;;6266384;22;20016;-56
2022/03/28 02:12:56;;;;;;;11.77;7.60;;;7.00;99.90;;;;;;6266020;22;20038;-56
2022/03/28 02:15:22;;;;;;;8.40;6.90;;;7.00;99.90;;;;;;6265412;22;20069;-56
2022/03/28 02:17:48;;;;;;;11.23;6.57;;;7.00;99.90;;;;;;6265364;22;20098;-56
2022/03/28 02:20:15;;;;;;;8.85;7.30;;;6.90;99.90;;;;;;6213473;22;20020;-56
2022/03/28 02:22:43;;;;;;;10.82;7.45;;;6.80;99.90;;;;;;6266157;22;20377;-56
2022/03/28 02:25:10;;;;;;;12.05;6.68;;;6.80;99.90;;;;;;6238955;22;20073;-55
2022/03/28 02:27:36;;;;;;;8.73;6.43;;;6.80;99.90;;;;;;6213617;22;20567;-56
2022/03/28 02:30:05;;;;;;;12.70;8.18;;;6.80;99.90;;;;;;6265673;22;20019;-57
2022/03/28 02:32:31;;;;;;;12.93;7.78;;;6.60;99.90;;;;;;6266170;22;20020;-56
2022/03/28 02:34:57;;;;;;;12.07;7.88;;;6.60;99.90;;;;;;6239084;22;20024;-57
2022/03/28 02:37:23;;;;;;;14.02;8.65;;;6.60;99.90;;;;;;6265231;22;20023;-58
2022/03/28 02:39:49;;;;;;;13.95;8.70;;;6.60;99.90;;;;;;6267962;22;20055;-58
2022/03/28 02:42:14;;;;;;;12.27;8.45;;;6.60;99.90;;;;;;6268790;22;20334;-58
2022/03/28 02:44:40;;;;;;;12.05;8.00;;;6.60;99.90;;;;;;6268371;22;20012;-59
2022/03/28 02:47:06;;;;;;;12.40;8.20;;;6.60;99.90;;;;;;6268623;22;20023;-56
2022/03/28 02:49:32;;;;;;;12.52;8.35;;;6.50;99.90;;;;;;6268449;22;20015;-56
2022/03/28 02:51:58;;;;;;;14.27;7.03;;;6.50;99.90;;;;;;6268556;22;20020;-56
2022/03/28 02:54:23;;;;;;;11.80;6.72;;;6.40;99.90;;;;;;6268733;22;20090;-56
2022/03/28 02:56:49;;;;;;;8.18;5.13;;;6.40;99.90;;;;;;6267589;22;20486;-56
2022/03/28 02:59:15;;;;;;;7.97;5.18;;;6.40;99.90;;;;;;6268714;22;20024;-56
2022/03/28 03:01:41;;;;;;;7.20;4.60;;;6.40;99.90;;;;;;6268363;22;20085;-57
2022/03/28 03:04:06;;;;;;;8.75;5.45;;;7.40;99.90;;;;;;6241601;22;20503;-56
2022/03/28 03:06:32;;;;;;;6.28;4.38;;;6.50;99.90;;;;;;6268677;22;20086;-56
2022/03/28 03:08:58;;;;;;;10.65;5.25;;;6.60;99.90;;;;;;6268006;22;20024;-56
2022/03/28 03:11:25;;;;;;;6.85;4.88;;;6.50;99.90;;;;;;6268332;22;20045;-56
2022/03/28 03:13:53;;;;;;;7.15;4.80;;;6.40;99.90;;;;;;6268220;22;20051;-56
2022/03/28 03:16:19;;;;;;;8.15;5.00;;;6.30;99.90;;;;;;6240160;22;20478;-56
2022/03/28 03:18:44;;;;;;;8.57;5.80;;;6.40;99.90;;;;;;6268059;22;20019;-56
2022/03/28 03:21:10;;;;;;;8.65;5.32;;;6.30;99.90;;;;;;6268406;22;20026;-56
2022/03/28 03:23:36;;;;;;;8.75;4.93;;;6.30;99.90;;;;;;6268154;22;20027;-56
2022/03/28 03:26:02;;;;;;;8.68;4.85;;;6.20;99.90;;;;;;6268643;22;20675;-56
2022/03/28 03:28:27;;;;;;;8.70;5.13;;;6.20;99.90;;;;;;6268391;22;20031;-56
2022/03/28 03:30:53;;;;;;;6.60;4.47;;;6.20;99.90;;;;;;6268121;22;20015;-56
2022/03/28 03:33:19;;;;;;;5.53;3.38;;;6.20;99.90;;;;;;6240745;22;20034;-56
2022/03/28 03:35:44;;;;;;;6.32;3.13;;;6.20;99.90;;;;;;6239545;22;20024;-56
2022/03/28 03:38:10;;;;;;;3.47;2.47;;;6.30;99.90;;;;;;6268414;22;20023;-56
2022/03/28 03:40:36;;;;;;;5.15;2.78;;;6.20;99.90;;;;;;6239876;22;20038;-57
2022/03/28 03:43:02;;;;;;;2.50;2.03;;;6.20;99.90;;;;;;6267212;22;20410;-56
2022/03/28 03:45:27;;;;;;;3.03;1.95;;;6.30;99.90;;;;;;6267832;22;20454;-56
2022/03/28 03:47:53;;;;;;;3.83;1.92;;;6.30;99.90;;;;;;6267604;22;20012;-56
2022/03/28 03:50:19;;;;;;;2.65;2.15;;;6.30;99.90;;;;;;6267948;22;20047;-57
2022/03/28 03:52:45;;;;;;;2.58;1.88;;;6.70;99.90;;;;;;6266923;22;20322;-56
2022/03/28 03:55:11;;;;;;;3.95;2.20;;;6.40;99.90;;;;;;6267619;22;20030;-56
2022/03/28 03:57:37;;;;;;;3.35;1.98;;;6.40;99.90;;;;;;6239490;22;20020;-65
2022/03/28 04:00:04;;;;;;;2.00;1.80;;;6.90;99.90;;;;;;6267789;22;20098;-60
2022/03/28 04:02:30;;;;;;;3.55;2.03;;;6.40;99.90;;;;;;6267794;22;20319;-62
2022/03/28 04:04:55;;;;;;;3.85;2.47;;;6.40;99.90;;;;;;6267823;22;20115;-65
2022/03/28 04:07:21;;;;;;;2.95;2.03;;;6.30;99.90;;;;;;6267826;22;20026;-62
2022/03/28 04:09:47;;;;;;;3.13;2.08;;;6.30;99.90;;;;;;6266792;22;20474;-56
2022/03/28 04:12:14;;;;;;;2.60;1.55;;;6.40;99.90;;;;;;6267606;22;20022;-56
2022/03/28 04:14:39;;;;;;;3.33;1.13;;;6.30;99.90;;;;;;6267078;22;20427;-56
2022/03/28 04:17:05;;;;;;;3.20;1.67;;;6.30;99.90;;;;;;6267301;22;20457;-57
2022/03/28 04:19:31;;;;;;;1.67;1.27;;;6.40;99.90;;;;;;6267672;22;20283;-57
2022/03/28 04:21:57;;;;;;;1.98;1.60;;;6.30;99.90;;;;;;6267045;22;20055;-56
2022/03/28 04:24:23;;;;;;;1.50;0.93;;;6.30;99.90;;;;;;6267056;22;20020;-56
2022/03/28 04:26:48;;;;;;;1.30;0.93;;;6.30;99.90;;;;;;6267554;22;20039;-56
2022/03/28 04:29:14;;;;;;;1.27;0.98;;;6.70;99.90;;;;;;6267156;22;20402;-56
2022/03/28 04:31:40;;;;;;;0.63;0.63;;;6.30;99.90;;;;;;6266970;22;20460;-56
2022/03/28 04:34:09;;;;;;;1.00;0.60;;;6.30;99.90;;;;;;6266614;22;20024;-56
2022/03/28 04:36:37;;;;;;;2.35;1.40;;;6.30;99.90;;;;;;6267155;22;20023;-56
2022/03/28 04:39:04;;;;;;;2.58;1.40;;;6.30;99.90;;;;;;6267457;22;20341;-56
2022/03/28 04:41:30;;;;;;;1.60;0.88;;;6.80;99.90;;;;;;6267484;22;20141;-56
2022/03/28 04:43:55;;;;;;;1.20;1.00;;;6.10;99.90;;;;;;6267913;22;20031;-57
2022/03/28 04:46:21;;;;;;;3.40;1.52;;;6.10;99.90;;;;;;6267810;22;20020;-57
2022/03/28 04:48:48;;;;;;;3.70;2.22;;;6.10;99.90;;;;;;6267238;22;20039;-56
2022/03/28 04:51:14;;;;;;;3.05;2.05;;;6.10;99.90;;;;;;6267846;22;20223;-56
2022/03/28 04:53:40;;;;;;;2.95;2.05;;;6.10;99.90;;;;;;6267249;22;20020;-57
2022/03/28 04:56:06;;;;;;;3.03;1.80;;;6.20;99.90;;;;;;6267252;22;20073;-59
2022/03/28 04:58:31;;;;;;;4.65;2.63;;;6.20;99.90;;;;;;6267807;22;20012;-57
2022/03/28 05:00:57;;;;;;;5.18;2.58;;;6.20;99.90;;;;;;6266917;22;20443;-60
2022/03/28 05:03:23;;;;;;;2.72;1.77;;;6.10;99.90;;;;;;6266860;22;20019;-57
2022/03/28 05:05:49;;;;;;;6.65;3.00;;;6.30;99.90;;;;;;6239501;22;20530;-57
2022/03/28 05:08:15;;;;;;;7.20;4.05;;;6.20;99.90;;;;;;6267055;22;20030;-57
2022/03/28 05:10:41;;;;;;;5.72;3.88;;;6.20;99.90;;;;;;6240053;22;20015;-56
2022/03/28 05:13:06;;;;;;;10.43;4.32;;;6.20;99.90;;;;;;6268404;22;20055;-56
2022/03/28 05:15:32;;;;;;;13.48;6.38;;;6.20;99.90;;;;;;6267591;22;20112;-57
2022/03/28 05:17:58;;;;;;;11.80;7.13;;;6.20;99.90;;;;;;6267719;22;20020;-56
2022/03/28 05:20:24;;;;;;;13.07;6.47;;;6.20;99.90;;;;;;6267849;22;20034;-57
2022/03/28 05:22:50;;;;;;;15.57;9.00;;;6.20;99.90;;;;;;6267056;22;20358;-56
2022/03/28 05:25:15;;;;;;;20.90;9.98;;;6.20;99.90;;;;;;6266829;22;20015;-56
2022/03/28 05:27:45;;;;;;;27.40;12.55;;;6.50;99.90;;;;;;6267410;22;20357;-57
2022/03/28 05:30:12;;;;;;;22.45;12.02;;;6.30;99.90;;;;;;6267537;22;20038;-56
2022/03/28 05:32:38;;;;;;;25.20;12.77;;;6.30;99.90;;;;;;6267537;22;20066;-56
2022/03/28 05:35:07;;;;;;;28.77;13.75;;;6.40;99.90;;;;;;6266911;22;20020;-55
2022/03/28 05:37:34;;;;;;;21.02;11.50;;;6.30;99.90;;;;;;6239543;22;20051;-56
2022/03/28 05:40:01;;;;;;;23.38;12.73;;;6.20;99.90;;;;;;6267247;22;20341;-56
2022/03/28 05:42:27;;;;;;;20.08;11.40;;;6.20;99.90;;;;;;6267228;22;20024;-56
2022/03/28 05:44:53;;;;;;;20.58;11.30;;;6.20;99.90;;;;;;6239277;22;20019;-56
2022/03/28 05:47:19;;;;;;;20.80;11.73;;;6.20;99.90;;;;;;6266826;22;20031;-58
2022/03/28 05:49:44;;;;;;;19.45;11.65;;;6.20;99.90;;;;;;6239336;22;20069;-58
2022/03/28 05:52:10;;;;;;;15.70;9.43;;;6.20;99.90;;;;;;6267476;22;20098;-56
2022/03/28 05:54:36;;;;;;;14.10;8.77;;;6.30;99.90;;;;;;6266793;22;20027;-56
2022/03/28 05:57:02;;;;;;;15.60;9.85;;;6.30;99.90;;;;;;6267160;22;20019;-57
2022/03/28 05:59:28;;;;;;;17.38;9.73;;;6.40;99.90;;;;;;6266144;22;20027;-56
2022/03/28 06:01:54;;;;;;;16.15;9.18;;;6.40;99.90;;;;;;6266331;22;20094;-57
2022/03/28 06:04:20;;;;;;;13.05;8.38;;;6.30;99.90;;;;;;6266897;22;20086;-56
2022/03/28 06:06:46;;;;;;;16.10;9.48;;;6.30;99.90;;;;;;6266271;22;20024;-56
2022/03/28 06:09:12;;;;;;;13.52;10.18;;;6.30;99.90;;;;;;6239355;22;20019;-56
2022/03/28 06:11:37;;;;;;;14.52;9.60;;;6.50;99.90;;;;;;6266327;22;20059;-56
2022/03/28 06:14:04;;;;;;;14.52;9.18;;;6.30;99.90;;;;;;6267117;22;20015;-56
2022/03/28 06:16:30;;;;;;;10.40;8.23;;;6.30;99.90;;;;;;6266832;22;20023;-56
2022/03/28 06:18:56;;;;;;;11.23;7.63;;;6.30;99.90;;;;;;6255081;22;20031;-56
2022/03/28 06:21:22;;;;;;;11.80;7.22;;;6.30;99.90;;;;;;6266391;22;20019;-56
2022/03/28 06:23:48;;;;;;;9.13;6.45;;;6.30;99.90;;;;;;6265882;22;20026;-56
2022/03/28 06:26:14;;;;;;;9.57;6.45;;;6.30;99.90;;;;;;6266100;22;20020;-56
2022/03/28 06:28:40;;;;;;;9.13;5.82;;;6.40;99.90;;;;;;6265641;22;20015;-57
2022/03/28 06:31:06;;;;;;;8.98;6.15;;;6.40;99.90;;;;;;6266206;22;20465;-57
2022/03/28 06:33:33;;;;;;;17.08;5.25;;;6.50;99.90;;;;;;6267360;22;20008;-56
2022/03/28 06:35:59;;;;;;;9.40;4.40;;;6.60;99.90;;;;;;6267572;22;20122;-56
2022/03/28 06:38:24;;;;;;;5.65;4.47;;;6.50;99.90;;;;;;6267286;22;20020;-56
2022/03/28 06:40:50;;;;;;;6.20;3.97;;;6.50;99.90;;;;;;6268156;22;20059;-56
2022/03/28 06:43:16;;;;;;;5.25;4.22;;;6.50;99.90;;;;;;6268782;22;20027;-63
2022/03/28 06:45:42;;;;;;;6.00;4.25;;;6.60;99.90;;;;;;6268040;22;20016;-63
2022/03/28 06:48:07;;;;;;;5.75;4.40;;;6.60;99.90;;;;;;6267301;22;20023;-65
2022/03/28 06:50:34;;;;;;;10.07;5.68;;;6.60;99.90;;;;;;6267938;22;20020;-61
2022/03/28 06:53:01;;;;;;;6.90;4.90;;;6.60;99.90;;;;;;6268455;22;20019;-59
2022/03/28 06:55:27;;;;;;;9.68;5.70;;;6.60;99.90;;;;;;6268451;22;20019;-62
2022/03/28 06:57:52;;;;;;;8.13;5.40;;;6.50;99.90;;;;;;6268447;22;20019;-61
2022/03/28 07:00:18;;;;;;;8.13;5.72;;;6.60;99.90;;;;;;6240204;22;20078;-59
2022/03/28 07:02:45;;;;;;;9.48;6.22;;;6.70;99.90;;;;;;6268053;22;20019;-62
2022/03/28 07:05:10;;;;;;;13.13;7.63;;;6.70;99.90;;;;;;6268896;22;20026;-58
2022/03/28 07:07:39;;;;;;;19.27;9.98;;;6.90;99.90;;;;;;6268214;22;20016;-64
2022/03/28 07:10:06;;;;;;;15.63;9.32;;;6.70;99.90;;;;;;6268159;22;20034;-56
2022/03/28 07:12:32;;;;;;;16.98;9.88;;;6.80;99.90;;;;;;6268345;22;20072;-61
2022/03/28 07:14:57;;;;;;;16.65;10.02;;;6.90;99.90;;;;;;6268440;22;20130;-63
2022/03/28 07:17:23;;;;;;;17.65;10.35;;;6.90;99.90;;;;;;6267944;22;20338;-56
2022/03/28 07:19:49;;;;;;;19.23;10.07;;;7.40;99.90;;;;;;6267663;22;20031;-56
2022/03/28 07:22:15;;;;;;;14.30;8.20;;;7.10;99.90;;;;;;6239265;22;20027;-58
2022/03/28 07:24:41;;;;;;;10.30;7.20;;;7.20;99.90;;;;;;6267608;22;20099;-57
2022/03/28 07:27:06;;;;;;;13.30;7.32;;;7.60;99.90;;;;;;6267552;22;20047;-56
2022/03/28 07:29:32;;;;;;;10.48;6.40;;;7.40;99.90;;;;;;6268509;22;20015;-57
2022/03/28 07:31:58;;;;;;;9.80;6.47;;;7.40;99.90;;;;;;6240024;22;20035;-57
2022/03/28 07:34:29;;;;;;;8.77;5.40;;;7.40;99.90;;;;;;6269053;22;20023;-56
2022/03/28 07:36:56;;;;;;;7.57;5.53;;;7.60;99.90;;;;;;6267124;22;20028;-60
2022/03/28 07:39:22;;;;;;;5.63;4.45;;;7.60;99.90;;;;;;6267512;22;20073;-58
2022/03/28 07:41:49;;;;;;;14.65;11.57;;;7.70;99.90;;;;;;6267327;22;20506;-58
2022/03/28 07:44:15;;;;;;;11.75;9.93;;;7.80;99.90;;;;;;6268403;22;20069;-57
2022/03/28 07:46:43;;;;;;;8.25;6.90;;;8.20;99.90;;;;;;6266780;22;20015;-56
2022/03/28 07:49:09;;;;;;;9.07;6.13;;;7.90;99.90;;;;;;6215620;22;20447;-57
2022/03/28 07:51:35;;;;;;;9.68;6.78;;;8.00;99.90;;;;;;6268674;22;20338;-56
2022/03/28 07:54:01;;;;;;;9.00;6.85;;;7.90;99.90;;;;;;6267281;22;20015;-64
2022/03/28 07:56:27;;;;;;;7.55;5.70;;;8.00;99.90;;;;;;6267957;22;20019;-56
2022/03/28 07:58:53;;;;;;;6.05;4.90;;;8.20;99.90;;;;;;6268271;22;20142;-56
2022/03/28 08:01:18;;;;;;;10.57;6.13;;;8.20;99.90;;;;;;6267366;22;20027;-56
2022/03/28 08:03:44;;;;;;;12.75;6.95;;;8.20;99.90;;;;;;6266312;22;20016;-57
2022/03/28 08:06:10;;;;;;;8.30;6.18;;;8.60;99.90;;;;;;6267344;22;20125;-58
2022/03/28 08:08:36;;;;;;;10.80;6.00;;;8.50;99.90;;;;;;6266895;22;20024;-56
2022/03/28 08:11:07;;;;;;;10.68;6.47;;;8.50;99.90;;;;;;6239661;22;20099;-56
2022/03/28 08:13:34;;;;;;;7.22;5.75;;;8.60;99.90;;;;;;6267626;22;20520;-57
2022/03/28 08:15:59;;;;;;;9.23;6.78;;;8.50;99.90;;;;;;6266797;22;20024;-56
2022/03/28 08:18:26;;;;;;;10.00;6.18;;;8.70;99.90;;;;;;6266264;22;20327;-56
2022/03/28 08:20:53;;;;;;;11.43;7.07;;;8.80;99.90;;;;;;6267517;22;20020;-56
2022/03/28 08:23:20;;;;;;;7.40;5.53;;;8.80;99.90;;;;;;6268351;22;20042;-56
2022/03/28 08:25:47;;;;;;;7.32;5.90;;;8.80;99.90;;;;;;6266357;22;20051;-57
2022/03/28 08:28:13;;;;;;;10.80;5.93;;;8.90;99.90;;;;;;6240735;22;20011;-56
2022/03/28 08:30:39;;;;;;;8.52;5.80;;;9.00;99.90;;;;;;6267482;22;20093;-57
2022/03/28 08:33:05;;;;;;;8.43;5.68;;;9.10;99.90;;;;;;6265637;22;20110;-56
2022/03/28 08:35:31;;;;;;;9.85;5.68;;;9.10;99.90;;;;;;6267643;22;20026;-56
2022/03/28 08:37:57;;;;;;;7.25;5.63;;;9.20;99.90;;;;;;6266717;22;20030;-64
2022/03/28 08:40:23;;;;;;;7.70;5.90;;;9.20;99.90;;;;;;6267530;22;20485;-59
2022/03/28 08:42:49;;;;;;;10.85;7.22;;;9.30;99.90;;;;;;6268167;22;20027;-63
2022/03/28 08:45:15;;;;;;;12.85;6.93;;;9.30;99.90;;;;;;6267148;22;20015;-58
2022/03/28 08:47:43;;;;;;;11.23;5.82;;;9.40;99.90;;;;;;6266472;22;20019;-63
2022/03/28 08:50:12;;;;;;;9.90;6.47;;;9.60;99.90;;;;;;6267226;22;20022;-64
2022/03/28 08:52:40;;;;;;;8.85;6.53;;;9.60;99.90;;;;;;6267560;22;20612;-59
2022/03/28 08:55:07;;;;;;;10.63;6.30;;;9.70;99.90;;;;;;6267258;22;20412;-61
2022/03/28 08:57:33;;;;;;;8.55;6.00;;;9.70;99.90;;;;;;6267506;22;20466;-64
2022/03/28 08:59:59;;;;;;;9.98;5.68;;;9.60;99.90;;;;;;6266889;22;20020;-56
2022/03/28 09:02:45;;;;;;;8.43;5.90;;;9.60;99.90;;;;;;6266962;22;20029;-61
2022/03/28 09:05:15;;;;;;;8.93;5.75;;;9.80;99.90;;;;;;6267435;22;20083;-59
2022/03/28 09:07:42;;;;;;;11.38;5.70;;;9.70;99.90;;;;;;6239504;22;20081;-57
2022/03/28 09:10:16;;;;;;;9.52;6.00;;;9.80;99.90;;;;;;6266118;22;20019;-57
2022/03/28 09:13:00;;;;;;;11.00;6.70;;;10.00;99.90;;;;;;6266949;22;20015;-57
2022/03/28 09:15:43;;;;;;;10.52;5.70;;;10.00;99.90;;;;;;6267360;22;20027;-57
2022/03/28 09:18:18;;;;;;;11.60;7.72;;;10.20;99.90;;;;;;6240458;22;20051;-56
2022/03/28 09:20:49;;;;;;;11.40;6.90;;;10.40;99.90;;;;;;6267590;22;20323;-56
2022/03/28 09:23:30;;;;;;;9.30;6.13;;;10.40;99.90;;;;;;6266867;22;20059;-57
2022/03/28 09:25:56;;;;;;;8.48;5.97;;;10.50;99.90;;;;;;6265709;22;20020;-57
2022/03/28 09:28:38;;;;;;;15.88;7.10;;;10.40;99.90;;;;;;6266120;22;20023;-56
2022/03/28 09:31:20;;;;;;;10.18;7.43;;;10.60;99.90;;;;;;6266751;22;20462;-57
2022/03/28 09:33:59;;;;;;;13.23;7.85;;;10.90;99.90;;;;;;6267261;22;20015;-60
2022/03/28 09:36:40;;;;;;;11.35;7.70;;;10.50;99.90;;;;;;6236770;22;20020;-56
2022/03/28 09:39:13;;;;;;;12.13;7.82;;;10.80;99.90;;;;;;6264449;22;20024;-57
2022/03/28 09:41:39;;;;;;;12.38;8.73;;;10.50;99.90;;;;;;6236675;22;20031;-58
2022/03/28 09:44:07;;;;;;;10.50;7.32;;;10.80;99.90;;;;;;6266173;22;20020;-60
2022/03/28 09:46:34;;;;;;;10.35;7.43;;;11.00;99.90;;;;;;6265707;22;20023;-57
2022/03/28 09:49:01;;;;;;;11.02;7.45;;;10.90;99.90;;;;;;6266873;22;20059;-57
2022/03/28 09:51:28;;;;;;;13.45;7.40;;;11.00;99.90;;;;;;6266883;22;20054;-58
2022/03/28 09:53:54;;;;;;;11.30;8.02;;;11.00;99.90;;;;;;6265753;22;20394;-57
2022/03/28 09:56:20;;;;;;;13.02;8.20;;;11.00;99.90;;;;;;6266290;22;20392;-57
2022/03/28 09:59:04;;;;;;;11.15;6.78;;;11.30;99.90;;;;;;6266328;22;20012;-57
2022/03/28 10:01:40;;;;;;;12.90;8.25;;;11.60;99.90;;;;;;6266159;22;20023;-57
2022/03/28 10:04:11;;;;;;;11.45;8.57;;;11.60;99.90;;;;;;6266906;22;20027;-56
2022/03/28 10:06:38;;;;;;;11.65;7.95;;;11.70;99.90;;;;;;6267038;22;20027;-57
2022/03/28 10:09:08;;;;;;;11.05;7.40;;;11.60;99.90;;;;;;6265376;22;20027;-58
2022/03/28 10:11:36;;;;;;;11.15;8.18;;;11.90;99.90;;;;;;6239656;22;20023;-57
2022/03/28 10:14:02;;;;;;;13.18;8.60;;;12.00;99.90;;;;;;6265966;22;20509;-56
2022/03/28 10:16:28;;;;;;;12.55;7.68;;;12.20;99.90;;;;;;6261873;22;20116;-56
2022/03/28 10:18:54;;;;;;;12.70;8.80;;;12.50;99.90;;;;;;6260088;22;20031;-57
2022/03/28 10:21:31;;;;;;;13.48;8.20;;;12.60;99.90;;;;;;6261129;22;20464;-56
2022/03/28 10:24:03;;;;;;;14.27;7.97;;;12.70;99.90;;;;;;6261749;22;20022;-57
2022/03/28 10:26:33;;;;;;;14.13;9.63;;;12.80;99.90;;;;;;6261598;22;20033;-60
2022/03/28 10:29:15;;;;;;;11.48;9.52;;;12.90;99.90;;;;;;6262715;22;20547;-60
2022/03/28 10:31:55;;;;;;;11.13;7.95;;;13.00;99.90;;;;;;6234160;22;20031;-57
2022/03/28 10:34:45;;;;;;;11.00;8.20;;;14.30;99.90;;;;;;6262851;22;20028;-59
2022/03/28 10:37:36;;;;;;;13.32;9.02;;;13.20;99.90;;;;;;6262177;22;20016;-58
2022/03/28 10:40:35;;;;;;;10.65;8.23;;;13.40;99.90;;;;;;6260904;22;20020;-59
2022/03/28 10:43:09;;;;;;;12.35;8.45;;;13.30;99.90;;;;;;6261935;22;20530;-57
2022/03/28 10:45:49;;;;;;;;;;;13.20;99.90;;;;;;6235389;22;20020;-57
2022/03/28 10:48:34;;;;;;;18.10;8.77;;;13.10;99.90;;;;;;6263118;22;20301;-58
2022/03/28 10:51:09;;;;;;;11.38;7.63;;;12.30;99.90;;;;;;6261365;22;20020;-58
2022/03/28 10:53:43;;;;;;;10.63;7.15;;;13.10;99.90;;;;;;6235520;22;20387;-56
2022/03/28 10:56:13;;;;;;;;;;;13.30;99.90;;;;;;6263336;22;20026;-56
2022/03/28 10:58:58;;;;;;;11.40;7.68;;;13.50;99.90;;;;;;6236137;22;19918;-56
2022/03/28 11:01:27;;;;;;;9.60;7.25;;;13.50;99.90;;;;;;6236568;22;20020;-56
2022/03/28 11:04:00;;;;;;;7.68;6.88;;;13.90;99.90;;;;;;6263920;22;20019;-57
2022/03/28 11:07:01;;;;;;;10.90;8.68;;;14.20;99.90;;;;;;6265063;22;20114;-57
2022/03/28 11:10:00;;;;;;;15.35;10.10;;;14.30;99.90;;;;;;6264858;22;20023;-56
2022/03/28 11:12:31;;;;;;;9.23;7.88;;;14.60;99.90;;;;;;6263829;22;20051;-57
2022/03/28 11:15:03;;;;;;;10.30;7.88;;;15.00;99.90;;;;;;6263859;22;20023;-57
2022/03/28 11:17:31;;;;;;;11.00;7.97;;;14.90;99.90;;;;;;6263595;22;20342;-57
2022/03/28 11:19:58;;;;;;;11.05;8.68;;;15.00;99.90;;;;;;6236586;22;20445;-58
2022/03/28 11:22:45;;;;;;;13.40;7.75;;;14.60;99.90;;;;;;6264348;22;20024;-57
2022/03/28 11:25:34;;;;;;;13.77;9.90;;;14.50;99.90;;;;;;6237107;22;20315;-57
2022/03/28 11:28:21;;;;;;;13.65;10.30;;;14.60;99.90;;;;;;6264529;22;20019;-58
2022/03/28 11:30:48;;;;;;;9.45;7.65;;;15.10;99.90;;;;;;6264317;22;20020;-57
2022/03/28 11:33:21;;;;;;;10.65;8.02;;;15.20;99.90;;;;;;6264445;22;20023;-56
2022/03/28 11:35:56;;;;;;;11.85;8.93;;;15.50;99.90;;;;;;6263165;22;20012;-57
2022/03/28 11:38:24;;;;;;;12.05;8.65;;;15.80;99.90;;;;;;6263858;22;20020;-57
2022/03/28 11:40:50;;;;;;;11.40;8.35;;;15.90;99.90;;;;;;6263247;22;20576;-57
2022/03/28 11:43:16;;;;;;;16.15;9.07;;;16.20;99.90;;;;;;6263211;22;20023;-56
2022/03/28 11:45:47;;;;;;;11.95;8.80;;;16.50;99.90;;;;;;6263885;22;20106;-59
2022/03/28 11:48:17;;;;;;;10.93;7.88;;;16.50;99.90;;;;;;6236641;22;20055;-57
2022/03/28 11:50:43;;;;;;;15.02;8.82;;;16.70;99.90;;;;;;6263997;22;20023;-59
2022/03/28 11:53:12;;;;;;;10.13;8.40;;;17.10;99.90;;;;;;6262995;22;20015;-57
2022/03/28 11:55:45;;;;;;;10.50;8.27;;;17.80;99.90;;;;;;6236720;22;20085;-59
2022/03/28 11:58:19;;;;;;;12.35;9.13;;;18.30;99.90;;;;;;6264171;22;20369;-59
2022/03/28 12:00:48;;;;;;;12.68;9.43;;;18.70;99.90;;;;;;6262195;22;20090;-57
2022/03/28 12:03:16;;;;;;;14.10;9.88;;;18.80;99.90;;;;;;6263019;22;20016;-71
2022/03/28 12:05:44;;;;;;;10.40;8.60;;;18.80;99.90;;;;;;6263567;22;20108;-60
2022/03/28 12:08:13;;;;;;;10.93;8.32;;;18.90;99.90;;;;;;6263606;22;20081;-68
2022/03/28 12:10:47;;;;;;;12.30;8.52;;;18.90;99.90;;;;;;6263188;22;20507;-67
2022/03/28 12:13:12;;;;;;;10.45;7.22;;;18.80;99.90;;;;;;6263210;22;20055;-64
2022/03/28 12:15:43;;;;;;;10.25;8.45;;;18.10;99.90;;;;;;6263195;22;20093;-65
2022/03/28 12:18:10;;;;;;;9.52;7.82;;;17.70;99.90;;;;;;6263492;22;20051;-59
2022/03/28 12:20:42;;;;;;;9.88;8.32;;;17.50;99.90;;;;;;6262992;22;20102;-57
2022/03/28 12:23:08;;;;;;;12.68;8.63;;;17.70;99.90;;;;;;6234305;22;20066;-57
2022/03/28 12:25:36;;;;;;;11.45;8.10;;;17.40;99.90;;;;;;6262959;22;20023;-59
2022/03/28 12:28:08;;;;;;;10.40;8.38;;;18.30;99.90;;;;;;6262321;22;20059;-57
2022/03/28 12:30:46;;;;;;;9.48;7.40;;;19.20;99.90;;;;;;6263507;22;20519;-59
2022/03/28 12:33:20;;;;;;;11.80;7.15;;;19.60;99.90;;;;;;6263066;22;20021;-60
2022/03/28 12:35:50;;;;;;;13.93;8.95;;;19.60;99.90;;;;;;6262519;22;20023;-59
2022/03/28 12:38:25;;;;;;;8.82;7.93;;;18.60;99.90;;;;;;6234966;22;20063;-59
2022/03/28 12:40:56;;;;;;;10.63;7.65;;;17.50;99.90;;;;;;6262233;22;20448;-57
2022/03/28 12:43:27;;;;;;;9.52;7.43;;;18.00;99.90;;;;;;6263548;22;20026;-57
2022/03/28 12:45:54;;;;;;;10.85;9.02;;;17.80;99.90;;;;;;6263517;22;20104;-57
2022/03/28 12:48:21;;;;;;;10.10;7.93;;;17.70;99.90;;;;;;6235819;22;20020;-57
2022/03/28 12:50:58;;;;;;;10.57;8.35;;;16.90;99.90;;;;;;6262798;22;20019;-56
2022/03/28 12:53:26;;;;;;;12.25;8.80;;;17.30;99.90;;;;;;6263029;22;20015;-57
2022/03/28 12:55:53;;;;;;;11.77;9.27;;;19.60;99.90;;;;;;6261632;22;20061;-57